Date,TemperatureHighF,TemperatureAvgF,TemperatureLowF,DewpointHighF,DewpointAvgF,DewpointLowF,HumidityHigh,HumidityAvg,HumidityLow,PressureMaxIn,PressureMinIn,WindSpeedMaxMPH,WindSpeedAvgMPH,GustSpeedMaxMPH,PrecipitationSumIn
2013-1-1,37.3,31.4,19.8,26.0,17.2,6.0,70,57,45,29.92,29.71,12,2,19,0.02
2013-1-2,29.6,20.4,12.5,14.0,8.0,2.0,73,59,49,30.09,29.89,7,2,15,0.00
2013-1-3,26.1,14.5,3.9,9.0,-0.6,-6.0,69,53,28,30.13,29.99,5,1,9,0.00
2013-1-4,39.0,27.7,12.8,23.0,18.2,8.0,87,69,50,29.97,29.80,9,2,17,0.00
2013-1-5,41.6,32.6,23.0,24.0,20.9,18.0,83,64,42,30.25,29.84,6,1,13,0.00
2013-1-6,43.6,32.6,23.6,28.0,25.0,19.0,87,75,54,30.21,29.92,8,1,17,0.00
2013-1-7,39.5,30.5,21.5,30.0,22.1,17.0,93,73,43,30.39,29.95,6,1,12,0.00
2013-1-8,46.6,33.5,21.1,28.0,25.7,19.0,94,75,48,30.35,30.24,6,1,17,0.00
2013-1-9,44.2,35.6,23.8,36.0,28.5,22.0,94,77,53,30.39,29.98,6,1,13,0.01
2013-1-10,46.9,41.4,33.2,28.0,23.9,22.0,67,51,39,30.52,30.02,10,3,19,0.00
2013-1-11,39.9,34.1,25.4,36.0,27.7,22.0,93,78,62,30.51,30.21,2,0,3,0.11
2013-1-12,43.1,40.4,37.1,42.0,39.1,35.0,96,95,93,30.22,30.11,2,0,5,0.02
2013-1-13,52.1,46.6,41.4,49.0,45.1,40.0,96,94,89,30.14,29.98,4,0,9,0.01
2013-1-14,61.1,51.9,41.9,52.0,42.9,27.0,93,73,37,30.24,29.84,8,2,12,0.00
2013-1-15,41.7,37.7,33.2,28.0,25.2,23.0,72,61,52,30.30,30.20,3,0,5,0.00
2013-1-16,34.7,32.5,29.8,32.0,28.9,23.0,94,87,63,30.23,29.81,2,0,4,0.09
2013-1-17,42.1,34.7,29.7,32.0,26.9,13.0,95,75,50,30.07,29.82,6,1,12,0.35
2013-1-18,29.4,22.3,17.3,14.0,1.2,-5.0,55,41,28,30.44,30.04,7,2,18,0.00
2013-1-19,48.8,36.9,20.8,32.0,21.7,6.0,74,55,38,30.36,29.88,14,2,20,0.00
2013-1-20,53.4,41.5,28.4,32.0,24.9,9.0,73,53,34,29.91,29.53,15,3,23,0.00
2013-1-21,28.4,24.6,20.6,20.0,9.9,4.0,88,56,38,30.09,29.79,7,1,18,0.00
2013-1-22,24.0,19.9,12.4,19.0,7.1,-2.0,91,61,34,30.07,29.74,9,2,16,0.00
2013-1-23,15.8,10.8,6.2,0.0,-7.9,-12.0,63,44,29,30.13,30.05,12,3,16,0.00
2013-1-24,20.6,10.6,1.9,-7.0,-9.6,-12.0,56,41,27,30.21,30.05,9,2,20,0.00
2013-1-25,23.8,15.7,7.6,12.0,-6.6,-12.0,81,39,22,30.30,30.06,6,1,11,0.00
2013-1-26,25.0,16.9,9.9,13.0,2.5,-7.0,86,57,29,30.23,30.00,6,1,13,0.00
2013-1-27,30.8,20.3,10.9,3.0,0.1,-4.0,67,44,25,30.45,30.22,11,2,13,0.00
2013-1-28,31.3,24.0,16.8,26.0,13.0,2.0,92,66,34,30.44,30.00,3,0,6,0.00
2013-1-29,34.0,30.3,25.7,32.0,27.6,23.0,94,89,84,30.18,30.00,2,0,3,0.09
2013-1-30,61.7,49.4,33.2,57.0,47.1,32.0,97,92,83,30.14,29.44,8,2,21,0.23
2013-1-31,60.8,48.0,31.0,58.0,36.7,14.0,94,67,36,29.58,28.96,16,5,30,0.46
2013-2-1,32.6,28.5,21.9,16.0,7.8,3.0,54,42,32,30.07,29.59,12,4,19,0.00
2013-2-2,30.0,24.3,16.7,12.0,6.6,2.0,57,47,37,30.24,30.03,11,1,12,0.00
2013-2-3,27.2,24.4,21.3,22.0,19.3,12.0,88,81,56,30.04,29.72,4,0,10,0.00
2013-2-4,29.6,24.2,19.8,21.0,11.0,6.0,88,59,37,29.93,29.71,13,3,20,0.00
2013-2-5,28.3,24.6,20.7,23.0,13.3,8.0,89,63,50,30.01,29.92,5,0,7,0.00
2013-2-6,38.0,29.8,24.2,26.0,18.2,4.0,90,65,39,30.28,29.91,11,2,15,0.03
2013-2-7,30.7,24.5,16.4,15.0,4.2,0.0,65,43,28,30.51,30.29,4,1,11,0.00
2013-2-8,32.6,28.5,17.5,31.0,24.5,15.0,95,85,63,30.47,29.60,7,2,17,0.00
2013-2-9,20.7,18.2,15.0,18.0,13.4,2.0,93,82,57,30.18,29.55,11,4,19,0.00
2013-2-10,41.7,22.9,7.9,16.0,5.7,0.0,86,53,19,30.38,30.19,5,1,9,0.07
2013-2-11,44.0,30.9,14.4,43.0,28.2,11.0,96,90,74,30.34,29.59,5,0,9,0.29
2013-2-12,44.6,38.7,29.9,37.0,28.8,25.0,96,69,50,29.87,29.59,11,3,18,0.00
2013-2-13,43.3,34.4,25.3,28.0,24.4,21.0,89,69,48,29.86,29.68,6,1,10,0.00
2013-2-14,46.5,36.4,29.2,27.0,22.9,20.0,80,60,36,29.98,29.70,6,1,9,0.00
2013-2-15,53.5,38.8,27.0,35.0,30.5,23.0,92,74,47,29.99,29.88,8,1,14,0.00
2013-2-16,38.4,34.4,30.0,31.0,26.9,18.0,93,75,55,29.94,29.69,7,1,11,0.03
2013-2-17,29.6,21.5,17.0,20.0,10.4,0.0,88,65,42,29.68,29.38,18,5,24,0.00
2013-2-18,33.0,22.7,14.1,3.0,0.1,-3.0,53,39,23,30.15,29.68,13,3,21,0.00
2013-2-19,48.3,36.8,23.0,42.0,23.7,2.0,95,61,40,30.16,29.56,4,1,9,0.36
2013-2-20,41.6,32.4,26.2,40.0,19.5,10.0,94,61,40,29.77,29.51,11,4,20,0.01
2013-2-21,33.5,27.7,24.2,15.0,12.7,10.0,67,54,42,30.16,29.76,13,4,19,0.00
2013-2-22,40.7,31.9,23.0,25.0,20.6,16.0,79,64,43,30.37,30.19,6,1,13,0.00
2013-2-23,39.1,34.1,27.4,32.0,28.3,23.0,94,80,67,30.32,29.90,6,1,9,0.07
2013-2-24,36.7,33.9,30.9,35.0,32.4,29.0,95,94,92,29.89,29.68,4,1,8,0.58
2013-2-25,40.6,35.0,29.5,32.0,30.0,28.0,95,83,65,30.23,29.88,3,0,7,0.25
2013-2-26,45.0,36.2,25.8,34.0,28.7,24.0,95,76,54,30.32,30.14,6,1,11,0.00
2013-2-27,41.4,39.3,36.8,40.0,37.6,31.0,96,93,76,30.14,29.55,10,2,24,1.60
2013-2-28,46.8,38.1,33.6,39.0,35.0,33.0,96,89,70,29.63,29.51,2,0,7,0.00
2013-3-1,41.3,37.7,31.4,34.0,30.0,27.0,94,75,62,29.66,29.52,9,1,10,0.00
2013-3-2,45.0,37.6,31.2,29.0,27.0,25.0,79,66,53,29.66,29.61,8,1,9,0.00
2013-3-3,41.9,35.6,32.5,32.0,28.2,25.0,90,75,63,29.63,29.55,5,1,9,0.00
2013-3-4,40.0,34.4,29.6,27.0,23.8,21.0,79,66,51,29.73,29.57,8,3,17,0.00
2013-3-5,45.5,37.1,31.5,32.0,27.2,22.0,89,68,53,30.05,29.73,7,1,11,0.00
2013-3-6,39.8,36.9,34.1,35.0,32.7,30.0,91,84,67,30.09,30.03,7,2,24,0.14
2013-3-7,35.9,32.2,30.0,31.0,29.5,28.0,93,89,75,30.05,29.98,8,3,17,0.08
2013-3-8,39.5,32.9,29.2,32.0,28.3,23.0,95,84,57,30.13,29.93,8,2,19,0.06
2013-3-9,47.4,35.5,26.7,31.0,25.5,20.0,94,69,48,30.34,30.14,4,1,11,0.26
2013-3-10,44.0,34.1,23.8,32.0,28.6,22.0,95,81,62,30.40,30.30,4,1,10,0.00
2013-3-11,54.5,42.7,35.3,40.0,35.6,32.0,91,77,53,30.32,30.14,8,1,10,0.00
2013-3-12,57.6,50.1,41.9,53.0,47.3,40.0,95,90,76,30.14,29.71,10,1,14,0.40
2013-3-13,52.6,45.0,34.7,51.0,31.7,19.0,95,64,30,29.77,29.68,10,2,16,0.00
2013-3-14,35.0,31.1,22.7,24.0,14.4,6.0,67,51,39,29.83,29.70,8,3,14,0.00
2013-3-15,41.3,29.6,19.9,27.0,11.7,5.0,71,49,24,29.87,29.62,10,2,19,0.00
2013-3-16,40.5,34.1,27.5,26.0,14.1,7.0,76,46,26,29.87,29.66,5,1,11,0.00
2013-3-17,38.0,30.8,22.1,16.0,10.5,4.0,73,45,24,30.30,29.87,7,2,17,0.00
2013-3-18,39.6,28.5,17.3,26.0,9.1,1.0,90,46,26,30.45,30.24,6,1,11,0.00
2013-3-19,35.4,32.1,28.1,34.0,30.7,26.0,96,94,90,30.23,29.59,8,1,21,0.72
2013-3-20,39.2,30.8,23.2,26.0,21.1,17.0,94,70,43,29.80,29.69,11,2,19,0.03
2013-3-21,38.4,29.7,21.3,28.0,22.3,17.0,90,76,48,29.81,29.60,4,0,8,0.04
2013-3-22,41.3,33.7,27.1,26.0,19.3,15.0,89,57,38,29.74,29.59,11,2,16,0.00
2013-3-23,43.6,35.6,28.4,23.0,19.3,16.0,72,53,35,29.78,29.62,14,3,20,0.00
2013-3-24,49.2,38.4,30.8,29.0,22.9,19.0,74,55,38,29.80,29.71,6,1,11,0.00
2013-3-25,46.0,38.0,31.2,33.0,29.3,25.0,85,71,50,29.76,29.50,10,2,15,0.00
2013-3-26,51.4,41.2,35.1,30.0,25.0,19.0,76,55,30,29.77,29.52,8,1,11,0.00
2013-3-27,52.8,42.7,28.8,31.0,23.9,21.0,76,50,31,29.85,29.72,8,2,14,0.00
2013-3-28,48.2,42.3,36.3,35.0,32.8,30.0,89,70,49,30.00,29.85,4,1,8,0.00
2013-3-29,56.7,46.5,32.8,35.0,31.4,27.0,86,58,34,30.03,29.94,7,1,10,0.00
2013-3-30,57.4,47.1,36.3,33.0,24.0,14.0,76,45,18,30.08,29.99,6,1,11,0.00
2013-3-31,60.9,46.5,28.0,40.0,27.0,22.0,84,52,23,30.11,29.74,10,2,16,0.01
2013-4-1,62.6,47.6,35.1,47.0,37.5,12.0,94,71,37,29.78,29.49,10,3,20,0.18
2013-4-2,39.8,34.3,29.1,17.0,12.9,8.0,55,42,29,29.93,29.79,13,4,27,0.00
2013-4-3,45.7,37.1,30.0,19.0,12.5,8.0,61,38,23,30.15,29.92,14,4,24,0.00
2013-4-4,57.1,41.9,29.2,26.0,15.9,9.0,58,38,16,30.29,30.04,9,2,13,0.00
2013-4-5,61.8,46.1,37.3,30.0,26.1,20.0,71,50,21,30.04,29.61,12,2,17,0.00
2013-4-6,47.8,38.5,31.2,27.0,10.9,2.0,62,35,16,30.32,29.87,10,3,19,0.00
2013-4-7,55.9,42.8,26.7,40.0,26.7,15.0,79,55,32,30.32,29.99,11,2,21,0.00
2013-4-8,66.7,52.1,41.2,43.0,39.9,34.0,94,67,30,30.08,29.94,7,1,9,0.00
2013-4-9,72.0,54.9,46.2,53.0,43.9,39.0,93,69,38,30.07,29.84,8,2,18,0.08
2013-4-10,65.2,52.8,46.2,49.0,45.4,42.0,93,77,54,30.00,29.84,5,0,8,0.20
2013-4-11,53.0,47.7,42.5,48.0,40.4,27.0,94,77,48,30.12,29.81,4,1,8,0.09
2013-4-12,43.1,39.2,37.2,38.0,34.9,30.0,94,85,61,30.15,29.78,17,2,18,0.53
2013-4-13,53.9,43.6,35.7,40.0,36.3,33.0,93,77,48,29.91,29.75,6,1,11,0.04
2013-4-14,51.9,45.4,36.1,41.0,32.4,26.0,92,63,38,30.20,29.90,6,1,15,0.00
2013-4-15,57.3,44.7,30.9,39.0,33.0,27.0,89,66,36,30.38,30.20,7,1,8,0.00
2013-4-16,65.3,52.3,36.5,50.0,41.8,34.0,94,70,47,30.39,30.05,8,2,23,0.00
2013-4-17,68.0,59.5,49.2,52.0,36.9,28.0,84,47,23,30.31,30.04,11,2,15,0.00
2013-4-18,65.4,52.1,37.7,44.0,34.5,28.0,85,55,30,30.41,30.13,7,1,14,0.00
2013-4-19,76.0,64.1,52.7,62.0,57.4,45.0,95,80,57,30.13,29.64,19,3,22,0.00
2013-4-20,66.4,54.1,44.4,62.0,41.3,24.0,94,66,35,30.21,29.59,13,2,19,0.61
2013-4-21,55.3,43.6,33.6,28.0,22.3,17.0,70,45,23,30.66,30.21,9,2,10,0.00
2013-4-22,51.3,42.3,31.8,35.0,29.9,23.0,92,64,35,30.75,30.59,14,2,15,0.00
2013-4-23,42.2,41.2,39.5,40.0,37.6,31.0,94,87,69,30.58,30.11,8,1,11,0.07
2013-4-24,77.9,56.1,41.3,51.0,44.5,38.0,95,70,24,30.11,29.77,5,1,12,0.00
2013-4-25,65.6,55.7,45.2,52.0,36.5,24.0,91,54,21,30.25,29.82,6,1,13,0.05
2013-4-26,59.5,49.2,37.8,41.0,35.1,30.0,86,61,39,30.41,30.25,13,1,13,0.00
2013-4-27,64.7,52.1,36.7,43.0,36.7,34.0,95,61,32,30.41,30.27,7,1,10,0.00
2013-4-28,69.7,55.1,37.9,41.0,35.2,28.0,92,52,28,30.33,30.19,8,1,10,0.00
2013-4-29,71.1,57.9,45.3,46.0,37.1,24.0,88,51,23,30.27,30.18,9,1,12,0.00
2013-4-30,70.4,56.6,42.8,38.0,29.8,17.0,79,42,15,30.35,30.24,5,1,10,0.00
2013-5-1,69.4,55.1,37.6,39.0,33.6,28.0,89,50,23,30.45,30.35,7,1,11,0.00
2013-5-2,78.5,56.0,41.7,47.0,40.9,35.0,92,62,24,30.47,30.33,10,1,14,0.00
2013-5-3,61.1,51.2,42.9,45.0,40.7,38.0,87,69,50,30.51,30.37,10,1,13,0.00
2013-5-4,58.9,48.8,38.9,45.0,39.7,36.0,95,73,49,30.36,30.29,7,1,11,0.00
2013-5-5,59.7,48.1,35.6,41.0,38.5,34.0,96,72,48,30.32,30.24,8,1,10,0.00
2013-5-6,69.5,51.4,36.8,50.0,43.8,35.0,96,78,44,30.28,30.14,4,1,8,0.00
2013-5-7,78.4,62.4,42.4,59.0,51.0,41.0,96,70,44,30.17,30.07,6,1,9,0.00
2013-5-8,72.1,62.7,51.6,63.0,57.5,50.0,95,84,61,30.18,30.04,11,1,18,0.33
2013-5-9,69.4,60.2,57.7,62.0,57.9,56.0,96,92,72,30.03,29.88,3,0,7,0.61
2013-5-10,80.6,67.0,54.2,60.0,56.6,53.0,97,72,39,29.94,29.87,5,1,7,0.01
2013-5-11,72.0,64.4,58.7,62.0,58.8,54.0,92,82,68,29.90,29.68,7,1,15,0.07
2013-5-12,73.0,61.8,50.6,60.0,51.1,31.0,94,71,39,29.80,29.55,8,1,13,0.08
2013-5-13,60.9,50.8,43.6,34.0,30.1,27.0,65,47,30,30.02,29.81,12,2,13,0.00
2013-5-14,59.8,49.9,38.3,35.0,31.2,28.0,79,51,31,30.04,29.96,7,1,15,0.00
2013-5-15,67.7,51.6,34.8,52.0,39.6,30.0,92,69,31,30.05,29.67,9,1,14,0.01
2013-5-16,82.1,67.2,47.9,51.0,41.4,34.0,96,47,19,29.77,29.61,12,2,19,0.01
2013-5-17,71.2,60.3,49.3,45.0,41.2,36.0,77,52,30,30.20,29.79,7,1,13,0.00
2013-5-18,73.7,60.3,44.1,48.0,43.7,36.0,94,59,26,30.29,30.20,6,1,11,0.00
2013-5-19,73.0,57.4,47.5,54.0,49.8,45.0,94,77,42,30.33,30.21,5,1,10,0.09
2013-5-20,83.9,68.3,55.7,66.0,60.4,54.0,96,78,52,30.20,29.89,7,1,10,0.02
2013-5-21,82.5,63.0,51.7,66.0,57.8,50.0,96,84,58,29.99,29.85,8,1,12,0.07
2013-5-22,68.0,56.8,50.6,61.0,53.4,49.0,95,88,73,30.04,29.87,5,1,9,0.09
2013-5-23,77.0,65.8,55.1,69.0,62.1,54.0,97,88,73,29.90,29.80,10,1,17,0.17
2013-5-24,72.6,63.1,49.2,67.0,60.8,48.0,96,92,79,29.81,29.64,5,1,9,0.86
2013-5-25,51.8,47.5,41.5,50.0,45.9,39.0,96,94,91,29.80,29.69,6,1,14,0.36
2013-5-26,59.8,48.8,39.4,43.0,39.4,37.0,93,72,45,30.09,29.71,12,2,19,0.05
2013-5-27,73.8,57.9,39.2,46.0,39.2,32.0,94,57,23,30.16,30.05,9,1,17,0.00
2013-5-28,74.7,60.5,42.7,52.0,46.0,40.0,95,63,34,30.22,30.14,5,1,8,0.00
2013-5-29,71.8,63.3,58.5,65.0,59.7,53.0,95,88,77,30.18,29.98,4,0,9,1.18
2013-5-30,89.5,76.3,62.6,70.0,66.0,61.0,96,73,48,30.07,29.98,12,1,12,0.01
2013-5-31,95.6,81.5,63.9,71.0,66.1,62.0,96,64,35,30.07,29.91,8,1,12,0.00
2013-6-1,93.2,81.1,66.9,69.0,65.5,62.0,85,61,39,29.96,29.84,10,2,14,0.00
2013-6-2,91.3,79.0,68.9,70.0,66.1,64.0,87,67,41,29.86,29.71,8,2,21,0.00
2013-6-3,79.1,70.1,62.6,68.0,63.1,44.0,93,79,50,29.83,29.74,5,1,11,0.43
2013-6-4,73.1,62.6,49.7,48.0,44.8,42.0,75,54,37,30.08,29.81,8,1,14,0.00
2013-6-5,76.4,63.2,49.7,51.0,47.3,44.0,89,59,34,30.18,30.07,5,1,8,0.00
2013-6-6,75.2,65.1,54.5,54.0,49.4,45.0,83,59,39,30.18,30.09,7,1,13,0.00
2013-6-7,60.0,56.3,53.9,57.0,53.9,50.0,96,92,80,30.10,29.81,6,1,10,2.94
2013-6-8,78.8,64.2,53.4,64.0,57.9,52.0,96,82,59,29.98,29.61,10,1,11,0.87
2013-6-9,80.9,69.2,56.3,58.0,56.1,54.0,94,66,40,30.14,29.99,6,1,12,0.00
2013-6-10,71.3,62.6,55.8,60.0,56.9,54.0,95,83,57,30.19,30.01,7,1,9,0.72
2013-6-11,63.9,59.0,56.5,59.0,56.9,55.0,96,93,84,30.00,29.56,6,1,11,1.35
2013-6-12,71.8,63.3,56.7,58.0,55.4,53.0,97,77,55,29.80,29.55,7,1,17,0.02
2013-6-13,67.2,57.5,51.3,58.0,53.4,50.0,95,86,66,29.80,29.66,3,0,7,0.82
2013-6-14,75.9,60.9,51.4,59.0,54.0,50.0,96,80,50,29.75,29.63,6,1,9,1.42
2013-6-15,80.6,67.9,53.8,55.0,48.8,42.0,93,55,26,29.92,29.75,6,1,11,0.00
2013-6-16,76.1,67.2,52.6,63.0,54.4,47.0,83,65,42,29.93,29.70,5,1,8,0.00
2013-6-17,87.1,70.7,58.6,64.0,60.0,56.0,96,73,37,29.89,29.75,7,2,18,0.19
2013-6-18,77.9,63.8,58.9,64.0,60.1,57.0,97,89,59,29.93,29.86,8,1,10,0.65
2013-6-19,75.7,64.9,55.2,58.0,53.1,48.0,96,69,42,30.13,29.89,4,0,9,0.04
2013-6-20,80.7,67.6,51.2,57.0,51.1,46.0,95,61,32,30.24,30.13,5,1,9,0.00
2013-6-21,85.8,72.6,58.4,65.0,58.8,53.0,84,64,39,30.24,30.16,6,1,8,0.00
2013-6-22,86.1,73.8,62.5,64.0,59.7,56.0,80,63,42,30.20,30.09,8,1,10,0.00
2013-6-23,91.0,77.8,65.9,72.0,65.1,57.0,79,66,50,30.14,29.98,7,2,12,0.00
2013-6-24,94.1,79.5,70.5,73.0,70.0,68.0,93,75,47,30.01,29.85,7,1,12,0.33
2013-6-25,92.1,80.1,68.4,71.0,68.4,66.0,93,70,44,29.90,29.70,5,1,14,0.00
2013-6-26,86.1,77.1,70.0,72.0,69.0,66.0,89,77,61,29.83,29.70,5,1,7,0.00
2013-6-27,73.2,67.0,63.4,66.0,64.0,61.0,95,90,78,29.85,29.75,3,0,5,0.12
2013-6-28,83.8,71.8,61.7,73.0,67.4,61.0,97,87,65,29.75,29.47,10,1,14,0.29
2013-6-29,85.4,76.3,71.3,71.0,68.8,66.0,93,78,56,29.71,29.50,7,2,16,0.00
2013-6-30,86.2,77.2,69.6,74.0,70.1,67.0,93,79,63,29.92,29.71,7,1,14,0.00
2013-7-1,83.5,76.2,71.8,76.0,72.2,70.0,95,87,75,30.06,29.92,5,1,10,0.10
2013-7-2,86.1,75.9,65.5,74.0,70.2,61.0,91,83,66,30.19,30.05,6,1,9,0.00
2013-7-3,90.3,77.3,63.8,74.0,69.3,61.0,91,77,56,30.18,30.11,9,2,12,0.00
2013-7-4,93.4,83.5,73.1,76.0,73.3,71.0,93,73,52,30.18,30.07,7,1,11,0.00
2013-7-5,95.1,85.6,77.0,76.0,73.6,72.0,84,69,48,30.14,30.01,7,2,10,0.00
2013-7-6,91.8,83.0,75.4,75.0,72.3,67.0,88,71,50,30.05,29.95,7,1,12,0.00
2013-7-7,94.3,80.4,70.3,77.0,71.0,66.0,89,74,52,30.00,29.87,6,0,9,0.01
2013-7-8,88.1,77.3,68.3,75.0,71.5,66.0,94,83,65,30.04,29.89,4,1,10,0.21
2013-7-9,74.5,69.5,65.2,68.0,65.5,64.0,95,87,79,30.09,30.03,4,0,5,0.01
2013-7-10,87.0,75.0,67.1,75.0,70.4,65.0,95,86,66,30.06,29.77,7,1,14,0.11
2013-7-11,82.3,76.2,71.8,74.0,71.9,69.0,96,87,72,29.90,29.76,6,0,9,0.16
2013-7-12,77.7,72.0,68.0,70.0,61.6,56.0,93,70,54,30.18,29.91,7,1,12,0.00
2013-7-13,78.5,71.2,66.8,70.0,66.3,62.0,95,84,73,30.29,30.18,3,0,6,0.05
2013-7-14,93.0,80.3,69.9,75.0,71.6,69.0,96,77,48,30.29,30.18,3,0,7,0.00
2013-7-15,93.8,81.5,71.2,74.0,72.3,70.0,95,75,48,30.18,30.07,3,0,7,0.00
2013-7-16,94.6,82.7,70.7,73.0,69.1,66.0,92,66,42,30.14,30.08,5,1,7,0.00
2013-7-17,96.2,84.1,71.8,75.0,71.2,67.0,90,67,39,30.16,29.98,4,1,10,0.00
2013-7-18,93.5,84.3,76.0,76.0,72.5,69.0,86,69,46,29.98,29.91,8,1,10,0.00
2013-7-19,97.6,87.0,75.7,78.0,74.5,71.0,91,69,44,29.92,29.69,10,2,17,0.00
2013-7-20,94.2,85.2,76.7,77.0,73.6,66.0,87,69,47,29.79,29.63,6,1,12,0.00
2013-7-21,84.4,76.1,70.7,68.0,64.9,62.0,89,69,53,29.96,29.79,7,1,9,0.00
2013-7-22,83.4,74.0,66.7,70.0,67.1,65.0,95,80,59,29.99,29.87,8,1,9,0.00
2013-7-23,79.8,72.9,70.2,76.0,70.7,67.0,96,93,82,29.87,29.52,7,0,9,1.51
2013-7-24,86.7,77.5,69.4,74.0,68.3,57.0,97,76,52,29.92,29.56,5,1,13,0.00
2013-7-25,67.2,61.6,58.8,59.0,54.5,50.0,95,78,63,30.08,29.94,4,1,9,0.60
2013-7-26,72.5,65.2,59.7,68.0,62.5,58.0,96,91,83,30.04,29.92,3,0,11,0.87
2013-7-27,85.8,72.3,58.3,67.0,63.2,57.0,96,75,46,30.04,29.97,5,1,8,0.00
2013-7-28,82.9,72.9,65.8,71.0,67.7,64.0,94,84,65,30.00,29.94,6,0,8,0.02
2013-7-29,85.5,73.6,67.3,73.0,68.3,65.0,95,84,61,30.01,29.95,9,1,15,0.40
2013-7-30,83.9,73.1,60.0,67.0,60.0,55.0,96,67,38,30.08,30.01,5,1,9,0.01
2013-7-31,84.1,73.1,60.4,64.0,59.6,55.0,94,66,39,30.12,30.02,3,0,6,0.00
2013-8-1,82.8,71.9,62.9,66.0,62.5,60.0,92,74,49,30.03,29.86,6,1,11,0.00
2013-8-2,83.7,72.9,64.5,68.0,63.2,59.0,95,74,44,29.87,29.77,4,1,9,0.37
2013-8-3,81.3,71.5,64.4,65.0,62.5,61.0,91,74,51,29.85,29.76,6,1,12,0.00
2013-8-4,81.6,69.9,59.3,60.0,57.2,55.0,86,66,41,29.88,29.75,6,1,10,0.00
2013-8-5,78.0,66.4,55.6,55.0,48.9,43.0,86,58,29,30.03,29.87,5,1,9,0.00
2013-8-6,80.8,65.9,50.7,55.0,51.9,48.0,92,64,36,30.13,30.03,5,0,7,0.00
2013-8-7,81.9,68.8,55.1,61.0,55.0,50.0,95,65,35,30.17,30.09,7,1,11,0.00
2013-8-8,81.3,72.4,66.0,72.0,66.2,55.0,92,81,68,30.11,29.99,7,1,9,0.07
2013-8-9,75.9,73.1,71.5,74.0,70.9,69.0,96,93,88,30.01,29.73,4,1,13,1.51
2013-8-10,85.8,74.6,63.5,71.0,62.2,54.0,96,68,40,29.99,29.77,6,1,14,0.01
2013-8-11,81.9,69.5,54.3,59.0,55.1,52.0,94,63,39,30.07,29.98,4,1,8,0.00
2013-8-12,84.3,72.1,60.2,63.0,59.1,55.0,92,67,41,30.01,29.90,6,1,7,0.00
2013-8-13,77.4,69.8,65.3,67.0,63.9,61.0,90,82,61,29.91,29.67,4,0,6,0.00
2013-8-14,76.0,67.3,60.2,63.0,55.0,51.0,93,67,45,29.95,29.65,10,1,16,0.00
2013-8-15,77.9,66.2,53.6,55.0,52.2,49.0,89,64,39,30.09,29.95,6,1,10,0.00
2013-8-16,81.2,68.1,53.7,58.0,54.8,51.0,93,66,37,30.18,30.09,10,1,12,0.00
2013-8-17,80.1,69.1,56.1,61.0,57.3,54.0,94,69,46,30.26,30.18,5,0,8,0.00
2013-8-18,79.9,69.7,59.2,65.0,59.7,57.0,93,72,47,30.25,30.07,3,0,7,0.00
2013-8-19,82.8,71.6,58.3,63.0,60.1,56.0,94,69,44,30.07,29.94,5,1,9,0.00
2013-8-20,87.3,75.6,62.6,65.0,61.8,58.0,91,65,38,30.07,29.96,3,0,8,0.00
2013-8-21,89.8,76.2,61.8,66.0,63.5,60.0,93,68,42,30.12,30.01,3,1,7,0.00
2013-8-22,87.4,75.8,65.1,72.0,67.4,63.0,91,76,52,30.02,29.81,7,1,10,0.00
2013-8-23,81.4,73.0,64.8,69.0,60.3,50.0,91,66,42,30.11,29.80,6,1,10,0.00
2013-8-24,77.3,66.7,54.4,52.0,48.2,41.0,85,55,28,30.32,30.11,7,1,10,0.00
2013-8-25,84.3,68.8,51.6,56.0,52.2,47.0,94,60,27,30.35,30.17,5,1,9,0.00
2013-8-26,81.8,72.3,65.5,67.0,62.0,56.0,83,70,54,30.17,29.86,7,1,14,0.00
2013-8-27,83.5,73.8,67.0,70.0,67.3,64.0,96,81,61,29.88,29.82,4,0,8,0.08
2013-8-28,85.0,71.9,62.4,68.0,64.3,61.0,95,79,54,29.96,29.84,10,1,10,0.00
2013-8-29,66.8,64.9,62.5,64.0,61.2,57.0,92,88,82,30.06,29.93,4,1,9,0.00
2013-8-30,84.7,71.5,62.1,68.0,63.3,58.0,88,76,54,30.02,29.80,4,1,10,0.00
2013-8-31,81.4,74.9,68.6,73.0,70.4,67.0,94,86,75,29.82,29.77,6,1,8,0.00
2013-9-1,81.0,73.1,69.6,76.0,70.7,67.0,95,92,83,29.87,29.77,6,0,8,0.43
2013-9-2,82.8,74.9,70.4,75.0,71.4,69.0,96,89,71,29.86,29.69,5,1,11,0.13
2013-9-3,81.9,73.9,64.9,71.0,68.0,59.0,96,82,64,29.79,29.68,6,1,12,0.01
2013-9-4,81.9,69.6,57.4,61.0,56.7,55.0,94,67,41,29.90,29.79,8,1,12,0.00
2013-9-5,71.0,63.7,51.8,62.0,55.4,42.0,92,76,36,30.13,29.84,3,0,9,0.08
2013-9-6,71.5,58.6,45.3,47.0,43.2,39.0,89,60,33,30.23,30.08,6,1,9,0.00
2013-9-7,80.5,64.6,47.7,57.0,49.7,45.0,90,62,33,30.08,29.84,8,1,11,0.00
2013-9-8,76.7,65.7,51.2,62.0,52.2,40.0,87,64,35,30.08,29.73,5,1,13,0.00
2013-9-9,71.2,58.2,43.9,50.0,44.4,40.0,89,63,37,30.23,30.08,5,0,11,0.00
2013-9-10,76.9,66.9,54.3,70.0,61.9,50.0,92,84,78,30.14,30.02,7,1,11,0.08
2013-9-11,97.0,81.6,68.7,77.0,71.8,67.0,96,75,44,30.05,29.92,7,1,11,0.00
2013-9-12,88.9,78.2,68.4,74.0,70.3,66.0,94,78,57,29.95,29.66,11,2,15,0.97
2013-9-13,78.8,69.2,59.7,69.0,64.6,55.0,96,86,64,29.74,29.55,3,0,7,0.18
2013-9-14,67.5,61.1,52.2,55.0,52.8,49.0,90,75,62,30.04,29.74,4,1,9,0.00
2013-9-15,72.4,59.7,47.4,54.0,48.9,45.0,96,71,40,30.15,30.04,6,1,8,0.00
2013-9-16,68.5,58.3,48.8,56.0,50.1,39.0,88,75,59,30.24,30.01,5,1,12,0.01
2013-9-17,65.1,52.4,40.5,45.0,39.3,36.0,90,64,38,30.41,30.24,7,0,9,0.00
2013-9-18,75.7,58.1,40.7,50.0,44.2,39.0,96,66,29,30.32,30.13,4,0,8,0.00
2013-9-19,81.8,63.1,46.1,55.0,50.9,45.0,95,69,36,30.13,30.01,3,0,6,0.00
2013-9-20,82.1,64.2,48.9,57.0,53.5,48.0,96,72,36,30.07,29.98,3,0,6,0.00
2013-9-21,77.1,66.0,54.1,66.0,59.9,52.0,96,82,55,30.02,29.71,10,1,19,0.00
2013-9-22,71.1,65.1,52.7,67.0,57.0,46.0,94,76,48,29.82,29.59,7,2,22,0.57
2013-9-23,65.5,53.9,45.1,46.0,42.3,40.0,84,66,47,29.99,29.82,6,1,11,0.00
2013-9-24,69.7,54.5,42.5,45.0,42.0,38.0,86,65,39,29.98,29.80,6,1,10,0.00
2013-9-25,69.7,56.0,43.5,50.0,46.7,42.0,94,73,49,29.97,29.87,5,1,8,0.00
2013-9-26,67.4,59.0,53.7,51.0,48.5,46.0,86,69,50,30.11,29.97,4,0,7,0.00
2013-9-27,68.1,58.8,49.6,53.0,50.9,48.0,93,76,55,30.25,30.11,5,0,6,0.00
2013-9-28,74.8,58.7,46.8,56.0,51.0,46.0,96,78,49,30.32,30.24,5,0,9,0.00
2013-9-29,68.9,54.9,46.5,55.0,47.8,43.0,96,80,41,30.26,30.11,5,0,9,0.01
2013-9-30,69.4,56.4,49.0,52.0,49.6,47.0,95,80,46,30.12,29.96,5,0,6,0.00
2013-10-1,79.1,61.0,45.9,56.0,50.9,45.0,96,74,39,29.95,29.83,5,0,8,0.00
2013-10-2,80.9,66.0,51.1,61.0,56.8,50.0,96,74,50,29.93,29.81,7,1,18,0.00
2013-10-3,78.9,64.1,50.3,56.0,50.6,45.0,96,66,32,30.07,29.94,6,0,7,0.00
2013-10-4,66.2,58.8,51.1,59.0,54.4,49.0,93,85,74,30.07,30.02,2,0,3,0.10
2013-10-5,70.1,62.8,58.0,59.0,57.0,55.0,94,82,63,30.11,30.04,3,0,6,0.00
2013-10-6,61.3,57.1,55.0,58.0,55.4,53.0,96,94,86,30.22,30.10,3,0,7,0.42
2013-10-7,78.1,66.3,57.2,71.0,63.0,55.0,97,89,71,30.11,29.80,10,1,18,0.21
2013-10-8,67.6,58.1,46.5,55.0,45.2,41.0,83,64,39,30.36,29.90,5,1,8,0.00
2013-10-9,62.4,51.6,42.6,46.0,43.1,40.0,92,74,50,30.46,30.36,7,1,10,0.00
2013-10-10,62.7,52.3,41.6,52.0,47.8,40.0,96,85,68,30.35,30.17,3,0,7,0.00
2013-10-11,72.4,58.5,50.5,56.0,49.7,42.0,95,75,35,30.17,30.08,3,0,8,0.00
2013-10-12,60.2,54.0,46.7,56.0,51.0,45.0,96,89,80,30.38,30.14,5,1,10,0.00
2013-10-13,60.7,51.9,41.2,50.0,45.9,40.0,95,81,60,30.44,30.36,4,0,10,0.00
2013-10-14,65.2,50.2,36.7,48.0,41.5,35.0,96,76,35,30.40,30.24,2,0,6,0.01
2013-10-15,69.3,56.9,47.3,53.0,49.6,45.0,95,78,54,30.25,30.17,4,0,7,0.00
2013-10-16,62.5,55.3,46.9,55.0,51.7,45.0,96,88,75,30.16,29.90,2,0,5,0.00
2013-10-17,73.7,61.6,52.0,60.0,56.7,51.0,96,85,62,29.91,29.71,4,1,10,0.01
2013-10-18,68.5,60.6,45.5,61.0,50.7,43.0,95,73,45,29.90,29.60,9,1,15,0.05
2013-10-19,67.3,54.6,41.5,48.0,43.0,39.0,93,68,39,29.96,29.74,3,1,10,0.00
2013-10-20,62.6,53.1,40.5,50.0,40.2,33.0,96,66,33,30.01,29.68,9,1,16,0.02
2013-10-21,68.5,52.0,37.0,44.0,39.6,35.0,93,66,36,30.11,29.99,5,1,9,0.00
2013-10-22,68.1,52.8,39.7,52.0,44.4,38.0,96,75,49,29.98,29.69,7,1,15,0.00
2013-10-23,51.6,45.1,35.8,39.0,34.7,32.0,93,69,48,29.79,29.59,2,0,5,0.00
2013-10-24,53.7,44.8,35.7,36.0,29.4,24.0,85,57,33,29.88,29.64,7,1,15,0.00
2013-10-25,50.5,39.8,30.0,35.0,28.5,26.0,93,66,42,30.15,29.88,6,1,10,0.00
2013-10-26,56.5,42.7,28.2,36.0,29.6,26.0,94,64,31,30.15,29.87,7,1,16,0.00
2013-10-27,54.9,47.6,39.1,40.0,34.2,28.0,87,62,41,30.05,29.80,7,1,14,0.01
2013-10-28,58.7,44.6,32.3,35.0,30.9,24.0,89,62,38,30.34,30.06,11,1,16,0.00
2013-10-29,50.7,38.2,28.7,31.0,25.6,18.0,90,63,30,30.44,30.34,3,0,7,0.00
2013-10-30,53.5,39.7,31.0,42.0,35.6,29.0,93,85,61,30.36,30.19,8,0,8,0.03
2013-10-31,62.8,48.6,32.1,59.0,45.8,31.0,96,90,80,30.23,29.79,5,1,12,0.05
2013-11-1,71.0,64.6,58.8,63.0,58.2,54.0,94,80,63,29.77,29.45,11,2,22,0.12
2013-11-2,68.0,56.1,45.3,54.0,45.3,40.0,95,71,36,29.71,29.58,4,0,7,0.00
2013-11-3,50.6,41.8,32.0,47.0,29.6,15.0,90,65,36,30.41,29.71,5,1,10,0.00
2013-11-4,44.1,33.7,25.7,23.0,18.6,13.0,86,57,29,30.70,30.42,5,1,7,0.00
2013-11-5,52.1,37.6,24.8,32.0,26.8,21.0,87,68,40,30.71,30.50,5,0,6,0.00
2013-11-6,62.1,50.3,37.3,50.0,40.9,32.0,86,72,48,30.51,30.03,6,1,11,0.00
2013-11-7,66.7,53.7,36.4,58.0,49.5,33.0,92,86,68,30.03,29.66,7,1,15,0.27
2013-11-8,48.4,39.0,30.6,35.0,27.5,21.0,88,65,48,30.09,29.81,8,2,18,0.01
2013-11-9,44.8,38.4,27.2,29.0,24.0,21.0,82,58,39,30.21,30.02,6,1,12,0.00
2013-11-10,57.0,45.8,39.9,44.0,35.9,29.0,94,70,49,30.02,29.72,10,1,15,0.05
2013-11-11,52.3,45.3,38.3,32.0,28.0,24.0,64,52,34,30.09,29.85,13,2,18,0.00
2013-11-12,48.1,35.7,26.5,39.0,25.5,16.0,91,67,54,30.18,29.88,6,2,13,0.16
2013-11-13,36.9,28.6,22.9,16.0,14.5,11.0,74,57,37,30.28,30.16,6,1,11,0.00
2013-11-14,51.5,38.9,28.0,25.0,20.6,16.0,63,49,32,30.15,30.03,9,1,14,0.00
2013-11-15,62.2,44.9,28.5,34.0,23.0,14.0,75,47,16,30.19,30.09,4,0,12,0.00
2013-11-16,62.0,45.4,33.5,33.0,28.7,23.0,81,56,24,30.30,30.18,2,0,5,0.00
2013-11-17,57.5,46.3,32.0,54.0,41.7,28.0,95,84,66,30.30,29.83,1,0,4,0.06
2013-11-18,66.4,59.0,47.7,61.0,47.5,32.0,97,68,41,29.82,29.52,10,2,16,0.21
2013-11-19,47.9,39.9,30.7,32.0,22.0,16.0,58,49,38,30.26,29.64,12,3,17,0.00
2013-11-20,42.5,32.1,23.9,17.0,14.9,12.0,73,51,30,30.62,30.27,7,1,13,0.00
2013-11-21,48.5,35.2,21.3,29.0,20.4,16.0,83,58,32,30.63,30.37,7,0,9,0.00
2013-11-22,46.6,43.7,39.3,45.0,40.5,29.0,96,89,68,30.36,29.81,2,0,3,0.21
2013-11-23,47.7,40.6,29.5,46.0,26.4,15.0,95,59,35,29.90,29.77,10,3,16,0.00
2013-11-24,29.3,24.0,19.9,19.0,3.7,-5.0,74,43,25,30.19,29.78,13,5,22,0.00
2013-11-25,33.6,24.7,16.0,16.0,2.8,-7.0,57,40,20,30.37,30.19,8,2,13,0.00
2013-11-26,41.1,36.6,30.0,40.0,23.0,16.0,94,60,43,30.32,30.03,5,0,14,0.11
2013-11-27,62.3,51.4,37.4,60.0,49.6,33.0,96,93,83,30.01,29.20,10,2,22,1.95
2013-11-28,37.4,30.8,24.2,32.0,15.9,7.0,82,55,37,30.43,29.46,17,3,24,0.00
2013-11-29,34.2,27.1,20.5,17.0,11.0,1.0,72,52,32,30.73,30.43,6,1,11,0.00
2013-11-30,33.9,24.8,14.2,22.0,14.4,8.0,79,65,51,30.79,30.43,4,0,7,0.00
2013-12-1,37.3,34.4,31.2,36.0,31.2,23.0,95,88,71,30.42,30.00,2,0,4,0.12
2013-12-2,39.3,37.1,35.7,38.0,35.9,35.0,96,95,93,30.00,29.91,1,0,3,0.02
2013-12-3,49.1,38.0,32.4,38.0,33.7,30.0,95,86,55,29.94,29.84,4,0,6,0.00
2013-12-4,41.6,17.5,27.8,30.0,-31.8,-99.9,95,45,58,30.19,29.94,3,-467,8,0.00
2013-12-5,50.2,40.2,30.5,49.0,34.6,-99.9,97,85,75,30.20,29.91,2,-21,4,0.00
2013-12-6,56.5,48.9,33.9,55.0,45.3,32.0,97,87,72,30.13,29.84,4,0,10,0.32
2013-12-7,39.5,32.9,25.6,33.0,27.5,21.0,94,81,58,30.45,30.06,5,0,12,0.19
2013-12-8,30.6,27.7,20.6,21.0,16.7,15.0,85,64,53,30.59,30.45,4,0,7,0.00
2013-12-9,38.5,32.5,25.8,37.0,30.1,15.0,96,91,55,30.48,29.88,2,0,6,0.07
2013-12-10,33.7,31.0,24.9,32.0,28.2,17.0,96,89,68,29.98,29.77,8,1,12,0.01
2013-12-11,30.8,25.4,21.2,20.0,18.0,16.0,82,74,60,30.20,29.99,10,2,13,0.00
2013-12-12,25.0,20.6,13.9,17.0,7.7,1.0,84,59,36,30.27,30.07,6,1,14,0.00
2013-12-13,28.7,21.5,13.4,16.0,10.7,4.0,78,64,50,30.39,30.00,13,2,14,0.00
2013-12-14,29.2,15.9,10.2,28.0,6.2,-5.0,94,67,47,30.61,30.13,6,1,13,0.00
2013-12-15,33.9,27.7,21.9,33.0,25.4,19.0,96,90,79,30.11,29.42,6,1,14,0.00
2013-12-16,27.5,23.7,16.9,21.0,13.2,7.0,88,66,45,30.20,29.74,8,2,15,0.00
2013-12-17,19.6,13.6,5.2,17.0,8.4,0.0,91,80,62,30.28,29.95,2,0,4,0.00
2013-12-18,34.1,25.0,15.9,21.0,18.6,13.0,89,77,57,30.07,29.87,0,0,0,0.01
2013-12-19,43.6,33.3,22.9,28.0,23.6,19.0,84,68,49,30.10,29.95,7,1,16,0.17
2013-12-20,54.2,41.5,29.7,37.0,32.0,26.0,89,71,49,30.11,29.89,4,0,9,0.21
2013-12-21,59.3,49.4,40.9,48.0,42.6,34.0,90,78,67,29.94,29.84,6,0,9,0.00
2013-12-22,54.6,43.0,34.7,52.0,41.1,34.0,95,93,88,30.02,29.79,3,0,11,0.00
2013-12-23,36.5,33.9,32.2,36.0,32.9,31.0,96,96,95,30.08,29.95,4,0,5,0.76
2013-12-24,37.1,32.3,26.2,36.0,21.7,17.0,96,66,49,30.19,30.04,5,1,10,0.00
2013-12-25,26.0,19.3,14.2,17.0,5.3,0.0,74,55,41,30.54,30.19,7,1,14,0.00
2013-12-26,32.9,25.7,15.6,29.0,20.4,9.0,92,80,68,30.49,30.08,4,0,7,0.00
2013-12-27,33.9,28.0,23.1,22.0,19.9,18.0,86,72,56,30.27,30.18,8,1,13,0.00
2013-12-28,48.1,33.5,23.7,28.0,24.4,20.0,87,71,44,30.21,29.98,10,1,18,0.01
2013-12-29,42.6,35.0,26.7,39.0,31.6,24.0,95,87,67,30.03,29.39,7,0,15,1.40
2013-12-30,41.5,32.6,18.8,36.0,23.5,9.0,95,72,39,30.16,29.51,17,2,19,0.00
2013-12-31,25.9,18.9,13.3,14.0,5.7,-4.0,76,57,44,30.17,30.01,7,1,8,0.00
2014-1-1,27.7,21.4,14.5,13.0,8.2,5.0,72,58,43,30.38,30.18,9,1,13,0.00
2014-1-2,21.9,12.3,0.7,15.0,8.5,-3.0,87,85,63,30.35,29.85,9,1,10,0.00